sensor_id;sensor_type;location;lat;lon;timestamp;P1;durP1;ratioP1;P2;durP2;ratioP2
9240;SDS011;53485;49.326;9.738;2023-01-29T00:01:46;5.83;;;4.20;;
9240;SDS011;53485;49.326;9.738;2023-01-29T00:04:12;4.53;;;3.87;;
9240;SDS011;53485;49.326;9.738;2023-01-29T00:06:38;4.80;;;4.17;;
9240;SDS011;53485;49.326;9.738;2023-01-29T00:09:05;5.60;;;4.37;;
9240;SDS011;53485;49.326;9.738;2023-01-29T00:11:32;3.63;;;3.23;;
9240;SDS011;53485;49.326;9.738;2023-01-29T00:13:58;4.57;;;3.63;;
9240;SDS011;53485;49.326;9.738;2023-01-29T00:16:25;4.33;;;3.60;;
9240;SDS011;53485;49.326;9.738;2023-01-29T00:18:51;5.30;;;3.97;;
9240;SDS011;53485;49.326;9.738;2023-01-29T00:21:19;5.20;;;4.47;;
9240;SDS011;53485;49.326;9.738;2023-01-29T00:23:44;6.83;;;4.70;;
9240;SDS011;53485;49.326;9.738;2023-01-29T00:26:10;4.63;;;4.13;;
9240;SDS011;53485;49.326;9.738;2023-01-29T00:28:37;3.93;;;3.63;;
9240;SDS011;53485;49.326;9.738;2023-01-29T00:31:06;4.27;;;3.17;;
9240;SDS011;53485;49.326;9.738;2023-01-29T00:33:32;4.63;;;3.90;;
9240;SDS011;53485;49.326;9.738;2023-01-29T00:36:00;4.20;;;3.80;;
9240;SDS011;53485;49.326;9.738;2023-01-29T00:38:25;5.37;;;4.33;;
9240;SDS011;53485;49.326;9.738;2023-01-29T00:40:51;5.90;;;4.30;;
9240;SDS011;53485;49.326;9.738;2023-01-29T00:43:23;5.57;;;4.67;;
9240;SDS011;53485;49.326;9.738;2023-01-29T00:45:55;5.40;;;4.53;;
9240;SDS011;53485;49.326;9.738;2023-01-29T00:48:21;5.07;;;4.57;;
9240;SDS011;53485;49.326;9.738;2023-01-29T00:50:48;4.80;;;4.30;;
9240;SDS011;53485;49.326;9.738;2023-01-29T00:53:15;7.57;;;5.03;;
9240;SDS011;53485;49.326;9.738;2023-01-29T00:55:43;10.07;;;5.30;;
9240;SDS011;53485;49.326;9.738;2023-01-29T00:58:08;5.40;;;4.73;;
9240;SDS011;53485;49.326;9.738;2023-01-29T01:00:34;6.67;;;5.27;;
9240;SDS011;53485;49.326;9.738;2023-01-29T01:03:01;5.77;;;4.57;;
9240;SDS011;53485;49.326;9.738;2023-01-29T01:05:30;6.73;;;4.87;;
9240;SDS011;53485;49.326;9.738;2023-01-29T01:07:57;5.20;;;4.40;;
9240;SDS011;53485;49.326;9.738;2023-01-29T01:10:25;4.93;;;4.43;;
9240;SDS011;53485;49.326;9.738;2023-01-29T01:12:52;6.47;;;4.50;;
9240;SDS011;53485;49.326;9.738;2023-01-29T01:15:16;5.87;;;4.80;;
9240;SDS011;53485;49.326;9.738;2023-01-29T01:17:42;5.03;;;4.47;;
9240;SDS011;53485;49.326;9.738;2023-01-29T01:20:09;6.00;;;5.03;;
9240;SDS011;53485;49.326;9.738;2023-01-29T01:22:36;7.13;;;6.03;;
9240;SDS011;53485;49.326;9.738;2023-01-29T01:25:02;6.57;;;5.20;;
9240;SDS011;53485;49.326;9.738;2023-01-29T01:27:29;5.43;;;4.30;;
9240;SDS011;53485;49.326;9.738;2023-01-29T01:29:55;6.20;;;4.67;;
9240;SDS011;53485;49.326;9.738;2023-01-29T01:32:22;5.17;;;4.43;;
9240;SDS011;53485;49.326;9.738;2023-01-29T01:34:50;6.40;;;5.53;;
9240;SDS011;53485;49.326;9.738;2023-01-29T01:37:15;6.03;;;5.10;;
9240;SDS011;53485;49.326;9.738;2023-01-29T01:39:41;6.23;;;4.80;;
9240;SDS011;53485;49.326;9.738;2023-01-29T01:42:11;6.53;;;5.33;;
9240;SDS011;53485;49.326;9.738;2023-01-29T01:47:09;6.00;;;5.40;;
9240;SDS011;53485;49.326;9.738;2023-01-29T01:49:36;8.40;;;4.53;;
9240;SDS011;53485;49.326;9.738;2023-01-29T01:52:02;8.70;;;5.70;;
9240;SDS011;53485;49.326;9.738;2023-01-29T01:54:29;7.07;;;5.77;;
9240;SDS011;53485;49.326;9.738;2023-01-29T01:56:56;7.33;;;5.43;;
9240;SDS011;53485;49.326;9.738;2023-01-29T01:59:21;5.43;;;4.80;;
9240;SDS011;53485;49.326;9.738;2023-01-29T02:01:49;6.90;;;5.50;;
9240;SDS011;53485;49.326;9.738;2023-01-29T02:04:17;6.47;;;4.97;;
9240;SDS011;53485;49.326;9.738;2023-01-29T02:06:47;8.43;;;5.37;;
9240;SDS011;53485;49.326;9.738;2023-01-29T02:09:21;7.20;;;4.50;;
9240;SDS011;53485;49.326;9.738;2023-01-29T02:11:51;5.83;;;4.53;;
9240;SDS011;53485;49.326;9.738;2023-01-29T02:14:17;6.47;;;5.00;;
9240;SDS011;53485;49.326;9.738;2023-01-29T02:16:43;7.17;;;6.10;;
9240;SDS011;53485;49.326;9.738;2023-01-29T02:19:15;7.90;;;5.27;;
9240;SDS011;53485;49.326;9.738;2023-01-29T02:21:41;6.40;;;5.67;;
9240;SDS011;53485;49.326;9.738;2023-01-29T02:24:14;6.73;;;5.40;;
9240;SDS011;53485;49.326;9.738;2023-01-29T02:26:53;6.80;;;5.50;;
9240;SDS011;53485;49.326;9.738;2023-01-29T02:29:25;7.20;;;5.23;;
9240;SDS011;53485;49.326;9.738;2023-01-29T02:31:55;8.87;;;6.40;;
9240;SDS011;53485;49.326;9.738;2023-01-29T02:34:19;7.43;;;6.00;;
9240;SDS011;53485;49.326;9.738;2023-01-29T02:36:44;10.33;;;6.53;;
9240;SDS011;53485;49.326;9.738;2023-01-29T02:39:15;6.37;;;5.60;;
9240;SDS011;53485;49.326;9.738;2023-01-29T02:41:41;8.57;;;6.67;;
9240;SDS011;53485;49.326;9.738;2023-01-29T02:44:16;9.30;;;6.97;;
9240;SDS011;53485;49.326;9.738;2023-01-29T02:46:39;7.20;;;5.67;;
9240;SDS011;53485;49.326;9.738;2023-01-29T02:49:12;8.07;;;6.10;;
9240;SDS011;53485;49.326;9.738;2023-01-29T02:51:41;9.07;;;6.73;;
9240;SDS011;53485;49.326;9.738;2023-01-29T02:54:06;9.07;;;7.07;;
9240;SDS011;53485;49.326;9.738;2023-01-29T02:56:34;9.63;;;7.17;;
9240;SDS011;53485;49.326;9.738;2023-01-29T02:58:59;10.10;;;6.53;;
9240;SDS011;53485;49.326;9.738;2023-01-29T03:01:26;7.73;;;6.20;;
9240;SDS011;53485;49.326;9.738;2023-01-29T03:03:52;8.07;;;6.13;;
9240;SDS011;53485;49.326;9.738;2023-01-29T03:06:21;7.73;;;6.13;;
9240;SDS011;53485;49.326;9.738;2023-01-29T03:08:51;6.00;;;5.40;;
9240;SDS011;53485;49.326;9.738;2023-01-29T03:11:16;6.47;;;5.17;;
9240;SDS011;53485;49.326;9.738;2023-01-29T03:13:44;7.47;;;6.27;;
9240;SDS011;53485;49.326;9.738;2023-01-29T03:16:13;8.03;;;6.33;;
9240;SDS011;53485;49.326;9.738;2023-01-29T03:18:37;10.83;;;6.33;;
9240;SDS011;53485;49.326;9.738;2023-01-29T03:21:04;8.90;;;6.27;;
9240;SDS011;53485;49.326;9.738;2023-01-29T03:23:30;6.57;;;5.60;;
9240;SDS011;53485;49.326;9.738;2023-01-29T03:26:00;8.37;;;6.70;;
9240;SDS011;53485;49.326;9.738;2023-01-29T03:28:32;9.40;;;5.90;;
9240;SDS011;53485;49.326;9.738;2023-01-29T03:31:05;6.93;;;5.93;;
9240;SDS011;53485;49.326;9.738;2023-01-29T03:33:39;7.10;;;5.73;;
9240;SDS011;53485;49.326;9.738;2023-01-29T03:36:05;8.43;;;6.13;;
9240;SDS011;53485;49.326;9.738;2023-01-29T03:38:30;9.27;;;5.50;;
9240;SDS011;53485;49.326;9.738;2023-01-29T03:40:58;8.30;;;6.10;;
9240;SDS011;53485;49.326;9.738;2023-01-29T03:43:30;9.40;;;6.47;;
9240;SDS011;53485;49.326;9.738;2023-01-29T03:45:59;8.03;;;5.23;;
9240;SDS011;53485;49.326;9.738;2023-01-29T03:48:27;8.23;;;5.90;;
9240;SDS011;53485;49.326;9.738;2023-01-29T03:50:53;7.13;;;5.93;;
9240;SDS011;53485;49.326;9.738;2023-01-29T03:53:21;6.63;;;5.80;;
9240;SDS011;53485;49.326;9.738;2023-01-29T03:55:54;9.20;;;6.27;;
9240;SDS011;53485;49.326;9.738;2023-01-29T03:58:22;8.03;;;6.00;;
9240;SDS011;53485;49.326;9.738;2023-01-29T04:00:51;9.07;;;5.70;;
9240;SDS011;53485;49.326;9.738;2023-01-29T04:03:17;9.93;;;6.53;;
9240;SDS011;53485;49.326;9.738;2023-01-29T04:05:43;8.87;;;6.27;;
9240;SDS011;53485;49.326;9.738;2023-01-29T04:08:09;8.37;;;6.03;;
9240;SDS011;53485;49.326;9.738;2023-01-29T04:10:34;9.23;;;6.80;;
9240;SDS011;53485;49.326;9.738;2023-01-29T04:13:03;9.20;;;7.07;;
9240;SDS011;53485;49.326;9.738;2023-01-29T04:15:27;7.23;;;5.37;;
9240;SDS011;53485;49.326;9.738;2023-01-29T04:17:54;7.90;;;6.10;;
9240;SDS011;53485;49.326;9.738;2023-01-29T04:20:20;8.63;;;6.20;;
9240;SDS011;53485;49.326;9.738;2023-01-29T04:22:47;8.70;;;6.07;;
9240;SDS011;53485;49.326;9.738;2023-01-29T04:25:14;9.20;;;6.40;;
9240;SDS011;53485;49.326;9.738;2023-01-29T04:27:44;10.97;;;6.90;;
9240;SDS011;53485;49.326;9.738;2023-01-29T04:32:56;8.80;;;6.43;;
9240;SDS011;53485;49.326;9.738;2023-01-29T04:35:25;9.30;;;7.13;;
9240;SDS011;53485;49.326;9.738;2023-01-29T04:37:53;8.87;;;6.77;;
9240;SDS011;53485;49.326;9.738;2023-01-29T04:40:22;8.30;;;6.73;;
9240;SDS011;53485;49.326;9.738;2023-01-29T04:42:49;9.90;;;7.00;;
9240;SDS011;53485;49.326;9.738;2023-01-29T04:45:21;9.43;;;7.10;;
9240;SDS011;53485;49.326;9.738;2023-01-29T04:47:47;10.00;;;6.50;;
9240;SDS011;53485;49.326;9.738;2023-01-29T04:50:12;10.73;;;7.30;;
9240;SDS011;53485;49.326;9.738;2023-01-29T04:53:17;9.10;;;6.97;;
9240;SDS011;53485;49.326;9.738;2023-01-29T04:55:29;10.03;;;6.97;;
9240;SDS011;53485;49.326;9.738;2023-01-29T04:57:55;5.63;;;4.87;;
9240;SDS011;53485;49.326;9.738;2023-01-29T05:00:22;5.93;;;4.57;;
9240;SDS011;53485;49.326;9.738;2023-01-29T05:02:46;5.30;;;4.53;;
9240;SDS011;53485;49.326;9.738;2023-01-29T05:05:13;6.33;;;4.80;;
9240;SDS011;53485;49.326;9.738;2023-01-29T05:07:39;5.33;;;4.00;;
9240;SDS011;53485;49.326;9.738;2023-01-29T05:10:06;7.00;;;5.80;;
9240;SDS011;53485;49.326;9.738;2023-01-29T05:12:32;9.90;;;5.57;;
9240;SDS011;53485;49.326;9.738;2023-01-29T05:14:59;7.97;;;5.93;;
9240;SDS011;53485;49.326;9.738;2023-01-29T05:17:25;8.23;;;6.30;;
9240;SDS011;53485;49.326;9.738;2023-01-29T05:19:51;9.27;;;6.60;;
9240;SDS011;53485;49.326;9.738;2023-01-29T05:22:18;9.87;;;6.80;;
9240;SDS011;53485;49.326;9.738;2023-01-29T05:24:44;7.50;;;5.40;;
9240;SDS011;53485;49.326;9.738;2023-01-29T05:27:14;7.90;;;6.20;;
9240;SDS011;53485;49.326;9.738;2023-01-29T05:29:44;7.73;;;6.17;;
9240;SDS011;53485;49.326;9.738;2023-01-29T05:32:09;7.70;;;6.17;;
9240;SDS011;53485;49.326;9.738;2023-01-29T05:34:36;7.37;;;6.03;;
9240;SDS011;53485;49.326;9.738;2023-01-29T05:37:02;7.83;;;6.13;;
9240;SDS011;53485;49.326;9.738;2023-01-29T05:39:28;7.33;;;5.60;;
9240;SDS011;53485;49.326;9.738;2023-01-29T05:41:55;11.50;;;6.07;;
9240;SDS011;53485;49.326;9.738;2023-01-29T05:44:21;8.53;;;5.47;;
9240;SDS011;53485;49.326;9.738;2023-01-29T05:46:48;7.90;;;5.20;;
9240;SDS011;53485;49.326;9.738;2023-01-29T05:49:15;6.30;;;5.03;;
9240;SDS011;53485;49.326;9.738;2023-01-29T05:51:40;7.33;;;5.50;;
9240;SDS011;53485;49.326;9.738;2023-01-29T05:54:09;6.83;;;5.47;;
9240;SDS011;53485;49.326;9.738;2023-01-29T05:56:33;6.67;;;5.17;;
9240;SDS011;53485;49.326;9.738;2023-01-29T05:59:00;5.93;;;4.73;;
9240;SDS011;53485;49.326;9.738;2023-01-29T06:01:27;7.13;;;4.70;;
9240;SDS011;53485;49.326;9.738;2023-01-29T06:03:53;7.50;;;5.87;;
9240;SDS011;53485;49.326;9.738;2023-01-29T06:06:20;9.23;;;6.47;;
9240;SDS011;53485;49.326;9.738;2023-01-29T06:08:47;6.50;;;5.23;;
9240;SDS011;53485;49.326;9.738;2023-01-29T06:11:13;6.57;;;5.03;;
9240;SDS011;53485;49.326;9.738;2023-01-29T06:13:39;8.03;;;6.03;;
9240;SDS011;53485;49.326;9.738;2023-01-29T06:16:06;9.47;;;5.73;;
9240;SDS011;53485;49.326;9.738;2023-01-29T06:18:32;8.47;;;6.27;;
9240;SDS011;53485;49.326;9.738;2023-01-29T06:20:59;10.80;;;7.87;;
9240;SDS011;53485;49.326;9.738;2023-01-29T06:23:25;8.20;;;6.40;;
9240;SDS011;53485;49.326;9.738;2023-01-29T06:25:52;15.80;;;10.03;;
9240;SDS011;53485;49.326;9.738;2023-01-29T06:28:18;27.00;;;14.73;;
9240;SDS011;53485;49.326;9.738;2023-01-29T06:30:45;37.33;;;23.53;;
9240;SDS011;53485;49.326;9.738;2023-01-29T06:33:12;28.17;;;18.40;;
9240;SDS011;53485;49.326;9.738;2023-01-29T06:35:38;20.67;;;14.70;;
9240;SDS011;53485;49.326;9.738;2023-01-29T06:38:05;14.87;;;11.07;;
9240;SDS011;53485;49.326;9.738;2023-01-29T06:40:32;16.53;;;13.00;;
9240;SDS011;53485;49.326;9.738;2023-01-29T06:42:59;13.77;;;9.87;;
9240;SDS011;53485;49.326;9.738;2023-01-29T06:45:25;9.93;;;6.73;;
9240;SDS011;53485;49.326;9.738;2023-01-29T06:47:52;9.20;;;6.77;;
9240;SDS011;53485;49.326;9.738;2023-01-29T06:50:18;7.17;;;5.50;;
9240;SDS011;53485;49.326;9.738;2023-01-29T06:52:45;8.57;;;5.57;;
9240;SDS011;53485;49.326;9.738;2023-01-29T06:55:12;8.57;;;5.27;;
9240;SDS011;53485;49.326;9.738;2023-01-29T06:57:38;6.67;;;5.00;;
9240;SDS011;53485;49.326;9.738;2023-01-29T07:00:05;7.50;;;5.20;;
9240;SDS011;53485;49.326;9.738;2023-01-29T07:02:32;8.50;;;5.23;;
9240;SDS011;53485;49.326;9.738;2023-01-29T07:04:59;8.30;;;5.80;;
9240;SDS011;53485;49.326;9.738;2023-01-29T07:07:25;7.53;;;6.13;;
9240;SDS011;53485;49.326;9.738;2023-01-29T07:09:52;6.67;;;5.40;;
9240;SDS011;53485;49.326;9.738;2023-01-29T07:12:18;9.40;;;5.70;;
9240;SDS011;53485;49.326;9.738;2023-01-29T07:14:45;9.63;;;6.03;;
9240;SDS011;53485;49.326;9.738;2023-01-29T07:17:12;7.07;;;5.80;;
9240;SDS011;53485;49.326;9.738;2023-01-29T07:19:38;9.33;;;6.30;;
9240;SDS011;53485;49.326;9.738;2023-01-29T07:22:05;7.53;;;5.83;;
9240;SDS011;53485;49.326;9.738;2023-01-29T07:24:32;8.03;;;5.30;;
9240;SDS011;53485;49.326;9.738;2023-01-29T07:26:58;6.97;;;5.97;;
9240;SDS011;53485;49.326;9.738;2023-01-29T07:29:25;7.97;;;6.00;;
9240;SDS011;53485;49.326;9.738;2023-01-29T07:31:52;8.30;;;6.40;;
9240;SDS011;53485;49.326;9.738;2023-01-29T07:34:18;7.23;;;6.03;;
9240;SDS011;53485;49.326;9.738;2023-01-29T07:36:45;7.10;;;6.00;;
9240;SDS011;53485;49.326;9.738;2023-01-29T07:39:11;18.73;;;13.97;;
9240;SDS011;53485;49.326;9.738;2023-01-29T07:41:38;11.70;;;9.93;;
9240;SDS011;53485;49.326;9.738;2023-01-29T07:44:05;11.17;;;8.40;;
9240;SDS011;53485;49.326;9.738;2023-01-29T07:46:31;12.33;;;8.37;;
9240;SDS011;53485;49.326;9.738;2023-01-29T07:48:58;8.37;;;5.87;;
9240;SDS011;53485;49.326;9.738;2023-01-29T07:51:25;10.97;;;6.67;;
9240;SDS011;53485;49.326;9.738;2023-01-29T07:53:51;9.03;;;6.37;;
9240;SDS011;53485;49.326;9.738;2023-01-29T07:56:18;10.47;;;6.20;;
9240;SDS011;53485;49.326;9.738;2023-01-29T07:58:45;8.60;;;6.50;;
9240;SDS011;53485;49.326;9.738;2023-01-29T08:01:11;10.70;;;7.33;;
9240;SDS011;53485;49.326;9.738;2023-01-29T08:03:38;8.60;;;6.80;;
9240;SDS011;53485;49.326;9.738;2023-01-29T08:06:05;8.70;;;6.83;;
9240;SDS011;53485;49.326;9.738;2023-01-29T08:08:32;9.37;;;6.30;;
9240;SDS011;53485;49.326;9.738;2023-01-29T08:11:01;17.67;;;10.47;;
9240;SDS011;53485;49.326;9.738;2023-01-29T08:13:27;14.97;;;9.27;;
9240;SDS011;53485;49.326;9.738;2023-01-29T08:15:57;15.77;;;8.90;;
9240;SDS011;53485;49.326;9.738;2023-01-29T08:18:19;15.67;;;9.47;;
9240;SDS011;53485;49.326;9.738;2023-01-29T08:20:46;12.83;;;8.20;;
9240;SDS011;53485;49.326;9.738;2023-01-29T08:23:13;13.27;;;7.63;;
9240;SDS011;53485;49.326;9.738;2023-01-29T08:25:39;10.40;;;8.00;;
9240;SDS011;53485;49.326;9.738;2023-01-29T08:28:05;10.60;;;7.00;;
9240;SDS011;53485;49.326;9.738;2023-01-29T08:30:32;7.33;;;6.33;;
9240;SDS011;53485;49.326;9.738;2023-01-29T08:32:58;8.00;;;6.20;;
9240;SDS011;53485;49.326;9.738;2023-01-29T08:35:25;7.97;;;6.33;;
9240;SDS011;53485;49.326;9.738;2023-01-29T08:37:52;7.03;;;5.47;;
9240;SDS011;53485;49.326;9.738;2023-01-29T08:40:17;8.80;;;5.30;;
9240;SDS011;53485;49.326;9.738;2023-01-29T08:42:44;6.37;;;5.13;;
9240;SDS011;53485;49.326;9.738;2023-01-29T08:45:11;6.90;;;5.87;;
9240;SDS011;53485;49.326;9.738;2023-01-29T08:47:38;9.50;;;5.40;;
9240;SDS011;53485;49.326;9.738;2023-01-29T08:50:04;7.13;;;4.50;;
9240;SDS011;53485;49.326;9.738;2023-01-29T08:52:31;6.67;;;5.70;;
9240;SDS011;53485;49.326;9.738;2023-01-29T08:54:57;5.13;;;4.67;;
9240;SDS011;53485;49.326;9.738;2023-01-29T08:57:24;5.13;;;4.57;;
9240;SDS011;53485;49.326;9.738;2023-01-29T08:59:51;5.97;;;5.30;;
9240;SDS011;53485;49.326;9.738;2023-01-29T09:02:18;6.13;;;5.43;;
9240;SDS011;53485;49.326;9.738;2023-01-29T09:04:45;6.37;;;5.70;;
9240;SDS011;53485;49.326;9.738;2023-01-29T09:07:11;8.53;;;4.93;;
9240;SDS011;53485;49.326;9.738;2023-01-29T09:09:38;5.67;;;4.80;;
9240;SDS011;53485;49.326;9.738;2023-01-29T09:12:05;5.30;;;4.77;;
9240;SDS011;53485;49.326;9.738;2023-01-29T09:14:31;5.27;;;4.77;;
9240;SDS011;53485;49.326;9.738;2023-01-29T09:16:58;5.80;;;5.00;;
9240;SDS011;53485;49.326;9.738;2023-01-29T09:19:25;4.53;;;4.20;;
9240;SDS011;53485;49.326;9.738;2023-01-29T09:21:51;4.63;;;4.23;;
9240;SDS011;53485;49.326;9.738;2023-01-29T09:24:18;5.03;;;4.53;;
9240;SDS011;53485;49.326;9.738;2023-01-29T09:26:44;4.53;;;4.23;;
9240;SDS011;53485;49.326;9.738;2023-01-29T09:29:11;10.10;;;7.90;;
9240;SDS011;53485;49.326;9.738;2023-01-29T09:31:38;5.83;;;5.27;;
9240;SDS011;53485;49.326;9.738;2023-01-29T09:34:04;5.57;;;5.03;;
9240;SDS011;53485;49.326;9.738;2023-01-29T09:36:31;6.07;;;5.47;;
9240;SDS011;53485;49.326;9.738;2023-01-29T09:38:58;5.23;;;4.70;;
9240;SDS011;53485;49.326;9.738;2023-01-29T09:41:29;5.00;;;4.60;;
9240;SDS011;53485;49.326;9.738;2023-01-29T09:43:52;5.57;;;5.07;;
9240;SDS011;53485;49.326;9.738;2023-01-29T09:46:19;5.43;;;5.00;;
9240;SDS011;53485;49.326;9.738;2023-01-29T09:48:44;4.90;;;4.50;;
9240;SDS011;53485;49.326;9.738;2023-01-29T09:51:14;4.57;;;4.13;;
9240;SDS011;53485;49.326;9.738;2023-01-29T09:53:39;7.37;;;4.83;;
9240;SDS011;53485;49.326;9.738;2023-01-29T09:56:11;4.97;;;4.57;;
9240;SDS011;53485;49.326;9.738;2023-01-29T09:58:37;3.53;;;3.23;;
9240;SDS011;53485;49.326;9.738;2023-01-29T10:01:08;2.27;;;2.17;;
9240;SDS011;53485;49.326;9.738;2023-01-29T10:03:40;3.40;;;3.20;;
9240;SDS011;53485;49.326;9.738;2023-01-29T10:06:09;5.20;;;3.90;;
9240;SDS011;53485;49.326;9.738;2023-01-29T10:08:36;4.33;;;4.00;;
9240;SDS011;53485;49.326;9.738;2023-01-29T10:11:03;4.17;;;3.63;;
9240;SDS011;53485;49.326;9.738;2023-01-29T10:13:32;3.90;;;3.50;;
9240;SDS011;53485;49.326;9.738;2023-01-29T10:24:59;8.30;;;4.17;;
9240;SDS011;53485;49.326;9.738;2023-01-29T10:26:35;6.47;;;4.77;;
9240;SDS011;53485;49.326;9.738;2023-01-29T10:29:02;4.67;;;4.13;;
9240;SDS011;53485;49.326;9.738;2023-01-29T10:31:29;6.17;;;5.23;;
9240;SDS011;53485;49.326;9.738;2023-01-29T10:33:55;6.03;;;4.83;;
9240;SDS011;53485;49.326;9.738;2023-01-29T10:36:22;4.30;;;3.80;;
9240;SDS011;53485;49.326;9.738;2023-01-29T10:38:48;5.67;;;4.30;;
9240;SDS011;53485;49.326;9.738;2023-01-29T10:41:47;4.80;;;4.17;;
9240;SDS011;53485;49.326;9.738;2023-01-29T10:44:18;5.57;;;4.07;;
9240;SDS011;53485;49.326;9.738;2023-01-29T10:46:49;4.67;;;4.23;;
9240;SDS011;53485;49.326;9.738;2023-01-29T10:52:00;4.77;;;3.80;;
9240;SDS011;53485;49.326;9.738;2023-01-29T10:57:11;4.30;;;3.67;;
9240;SDS011;53485;49.326;9.738;2023-01-29T10:59:55;7.80;;;4.47;;
9240;SDS011;53485;49.326;9.738;2023-01-29T11:02:18;6.60;;;4.77;;
9240;SDS011;53485;49.326;9.738;2023-01-29T11:04:43;5.00;;;4.30;;
9240;SDS011;53485;49.326;9.738;2023-01-29T11:07:10;4.53;;;4.10;;
9240;SDS011;53485;49.326;9.738;2023-01-29T11:09:38;7.40;;;5.27;;
9240;SDS011;53485;49.326;9.738;2023-01-29T11:12:09;7.50;;;5.10;;
9240;SDS011;53485;49.326;9.738;2023-01-29T11:17:04;6.70;;;5.13;;
9240;SDS011;53485;49.326;9.738;2023-01-29T11:19:35;5.10;;;4.60;;
9240;SDS011;53485;49.326;9.738;2023-01-29T11:22:00;6.87;;;5.20;;
9240;SDS011;53485;49.326;9.738;2023-01-29T11:24:27;7.33;;;5.00;;
9240;SDS011;53485;49.326;9.738;2023-01-29T11:26:54;4.73;;;4.23;;
9240;SDS011;53485;49.326;9.738;2023-01-29T11:29:28;7.83;;;4.67;;
9240;SDS011;53485;49.326;9.738;2023-01-29T11:31:52;5.97;;;4.37;;
9240;SDS011;53485;49.326;9.738;2023-01-29T11:34:19;7.63;;;5.83;;
9240;SDS011;53485;49.326;9.738;2023-01-29T11:36:45;6.67;;;5.70;;
9240;SDS011;53485;49.326;9.738;2023-01-29T11:39:14;5.23;;;4.73;;
9240;SDS011;53485;49.326;9.738;2023-01-29T11:41:41;5.23;;;4.73;;
9240;SDS011;53485;49.326;9.738;2023-01-29T11:46:39;6.27;;;5.03;;
9240;SDS011;53485;49.326;9.738;2023-01-29T11:49:11;4.13;;;3.73;;
9240;SDS011;53485;49.326;9.738;2023-01-29T11:51:32;5.93;;;4.07;;
9240;SDS011;53485;49.326;9.738;2023-01-29T11:53:59;6.33;;;4.27;;
9240;SDS011;53485;49.326;9.738;2023-01-29T11:56:31;5.07;;;3.77;;
9240;SDS011;53485;49.326;9.738;2023-01-29T11:58:54;4.47;;;4.07;;
9240;SDS011;53485;49.326;9.738;2023-01-29T12:01:26;5.40;;;4.47;;
9240;SDS011;53485;49.326;9.738;2023-01-29T12:03:48;5.03;;;4.40;;
9240;SDS011;53485;49.326;9.738;2023-01-29T12:06:17;10.70;;;4.57;;
9240;SDS011;53485;49.326;9.738;2023-01-29T12:08:42;6.33;;;4.13;;
9240;SDS011;53485;49.326;9.738;2023-01-29T12:11:14;4.50;;;4.10;;
9240;SDS011;53485;49.326;9.738;2023-01-29T12:13:40;6.80;;;4.67;;
9240;SDS011;53485;49.326;9.738;2023-01-29T12:16:12;3.60;;;3.30;;
9240;SDS011;53485;49.326;9.738;2023-01-29T12:18:38;3.53;;;3.23;;
9240;SDS011;53485;49.326;9.738;2023-01-29T12:21:04;4.17;;;3.80;;
9240;SDS011;53485;49.326;9.738;2023-01-29T12:23:35;6.47;;;4.60;;
9240;SDS011;53485;49.326;9.738;2023-01-29T12:26:02;4.20;;;3.80;;
9240;SDS011;53485;49.326;9.738;2023-01-29T12:28:30;4.27;;;3.87;;
9240;SDS011;53485;49.326;9.738;2023-01-29T12:30:59;3.97;;;3.47;;
9240;SDS011;53485;49.326;9.738;2023-01-29T12:33:25;5.07;;;4.37;;
9240;SDS011;53485;49.326;9.738;2023-01-29T12:35:49;4.27;;;3.87;;
9240;SDS011;53485;49.326;9.738;2023-01-29T12:38:17;6.57;;;3.87;;
9240;SDS011;53485;49.326;9.738;2023-01-29T12:40:46;5.63;;;4.50;;
9240;SDS011;53485;49.326;9.738;2023-01-29T12:43:14;4.63;;;4.23;;
9240;SDS011;53485;49.326;9.738;2023-01-29T12:45:38;9.07;;;4.83;;
9240;SDS011;53485;49.326;9.738;2023-01-29T12:48:07;4.90;;;4.03;;
9240;SDS011;53485;49.326;9.738;2023-01-29T12:50:32;7.10;;;5.27;;
9240;SDS011;53485;49.326;9.738;2023-01-29T12:52:59;8.37;;;6.30;;
9240;SDS011;53485;49.326;9.738;2023-01-29T12:55:27;7.70;;;5.30;;
9240;SDS011;53485;49.326;9.738;2023-01-29T12:57:54;6.50;;;4.90;;
9240;SDS011;53485;49.326;9.738;2023-01-29T13:00:21;6.57;;;5.10;;
9240;SDS011;53485;49.326;9.738;2023-01-29T13:02:48;6.57;;;5.20;;
9240;SDS011;53485;49.326;9.738;2023-01-29T13:05:23;7.07;;;5.50;;
9240;SDS011;53485;49.326;9.738;2023-01-29T13:07:51;5.73;;;4.67;;
9240;SDS011;53485;49.326;9.738;2023-01-29T13:10:17;9.53;;;5.20;;
9240;SDS011;53485;49.326;9.738;2023-01-29T13:12:46;5.30;;;4.80;;
9240;SDS011;53485;49.326;9.738;2023-01-29T13:15:14;5.20;;;4.30;;
9240;SDS011;53485;49.326;9.738;2023-01-29T13:17:39;4.77;;;4.27;;
9240;SDS011;53485;49.326;9.738;2023-01-29T13:20:09;5.60;;;4.70;;
9240;SDS011;53485;49.326;9.738;2023-01-29T13:22:32;7.17;;;5.33;;
9240;SDS011;53485;49.326;9.738;2023-01-29T13:24:57;6.60;;;4.50;;
9240;SDS011;53485;49.326;9.738;2023-01-29T13:27:24;5.97;;;4.47;;
9240;SDS011;53485;49.326;9.738;2023-01-29T13:29:49;5.87;;;4.87;;
9240;SDS011;53485;49.326;9.738;2023-01-29T13:32:20;6.30;;;4.60;;
9240;SDS011;53485;49.326;9.738;2023-01-29T13:34:46;8.00;;;5.93;;
9240;SDS011;53485;49.326;9.738;2023-01-29T13:37:17;10.73;;;6.13;;
9240;SDS011;53485;49.326;9.738;2023-01-29T13:39:45;8.43;;;5.60;;
9240;SDS011;53485;49.326;9.738;2023-01-29T13:44:39;9.10;;;5.50;;
9240;SDS011;53485;49.326;9.738;2023-01-29T13:47:07;9.67;;;6.23;;
9240;SDS011;53485;49.326;9.738;2023-01-29T13:49:39;9.77;;;5.03;;
9240;SDS011;53485;49.326;9.738;2023-01-29T13:54:37;10.37;;;5.57;;
9240;SDS011;53485;49.326;9.738;2023-01-29T13:57:03;10.57;;;5.67;;
9240;SDS011;53485;49.326;9.738;2023-01-29T13:59:51;10.63;;;5.97;;
9240;SDS011;53485;49.326;9.738;2023-01-29T14:02:21;8.93;;;6.10;;
9240;SDS011;53485;49.326;9.738;2023-01-29T14:04:46;11.93;;;5.90;;
9240;SDS011;53485;49.326;9.738;2023-01-29T14:07:50;11.77;;;5.80;;
9240;SDS011;53485;49.326;9.738;2023-01-29T14:10:01;11.93;;;6.03;;
9240;SDS011;53485;49.326;9.738;2023-01-29T14:12:31;12.17;;;6.40;;
9240;SDS011;53485;49.326;9.738;2023-01-29T14:17:37;14.10;;;6.60;;
9240;SDS011;53485;49.326;9.738;2023-01-29T14:20:15;10.23;;;6.33;;
9240;SDS011;53485;49.326;9.738;2023-01-29T14:22:34;10.33;;;6.03;;
9240;SDS011;53485;49.326;9.738;2023-01-29T14:25:01;10.47;;;5.97;;
9240;SDS011;53485;49.326;9.738;2023-01-29T14:27:26;10.10;;;6.73;;
9240;SDS011;53485;49.326;9.738;2023-01-29T14:29:59;8.00;;;6.07;;
9240;SDS011;53485;49.326;9.738;2023-01-29T14:32:25;10.53;;;6.43;;
9240;SDS011;53485;49.326;9.738;2023-01-29T14:37:39;7.47;;;5.67;;
9240;SDS011;53485;49.326;9.738;2023-01-29T14:42:54;9.53;;;5.80;;
9240;SDS011;53485;49.326;9.738;2023-01-29T14:45:25;8.67;;;6.00;;
9240;SDS011;53485;49.326;9.738;2023-01-29T14:47:51;7.63;;;5.53;;
9240;SDS011;53485;49.326;9.738;2023-01-29T14:53:03;9.17;;;5.90;;
9240;SDS011;53485;49.326;9.738;2023-01-29T14:55:29;9.90;;;6.17;;
9240;SDS011;53485;49.326;9.738;2023-01-29T14:57:55;8.67;;;5.80;;
9240;SDS011;53485;49.326;9.738;2023-01-29T15:00:25;7.53;;;5.23;;
9240;SDS011;53485;49.326;9.738;2023-01-29T15:02:49;7.97;;;5.90;;
9240;SDS011;53485;49.326;9.738;2023-01-29T15:05:16;8.00;;;5.90;;
9240;SDS011;53485;49.326;9.738;2023-01-29T15:07:43;6.63;;;5.57;;
9240;SDS011;53485;49.326;9.738;2023-01-29T15:10:14;8.27;;;5.73;;
9240;SDS011;53485;49.326;9.738;2023-01-29T15:12:42;8.63;;;5.57;;
9240;SDS011;53485;49.326;9.738;2023-01-29T15:15:06;9.03;;;5.93;;
9240;SDS011;53485;49.326;9.738;2023-01-29T15:20:18;7.43;;;4.87;;
9240;SDS011;53485;49.326;9.738;2023-01-29T15:22:29;7.80;;;5.23;;
9240;SDS011;53485;49.326;9.738;2023-01-29T15:25:01;7.10;;;5.17;;
9240;SDS011;53485;49.326;9.738;2023-01-29T15:27:26;11.27;;;5.63;;
9240;SDS011;53485;49.326;9.738;2023-01-29T15:29:55;7.50;;;5.63;;
9240;SDS011;53485;49.326;9.738;2023-01-29T15:32:24;7.00;;;5.63;;
9240;SDS011;53485;49.326;9.738;2023-01-29T15:34:48;6.77;;;5.63;;
9240;SDS011;53485;49.326;9.738;2023-01-29T15:39:46;8.20;;;6.00;;
9240;SDS011;53485;49.326;9.738;2023-01-29T15:42:13;9.33;;;5.77;;
9240;SDS011;53485;49.326;9.738;2023-01-29T15:44:43;10.63;;;6.67;;
9240;SDS011;53485;49.326;9.738;2023-01-29T15:47:05;11.87;;;6.67;;